createdAt,value
2018-03-16T00:00:24.548Z,79.78
2018-03-16T00:01:47.580Z,80.24
2018-03-16T00:03:14.777Z,80.09
2018-03-16T00:04:46.099Z,79.93
2018-03-16T00:06:09.112Z,79.72
2018-03-16T00:07:36.187Z,79.56
2018-03-16T00:09:07.329Z,80.63
2018-03-16T00:10:34.380Z,79.56
2018-03-16T00:11:57.476Z,80.25
2018-03-16T00:13:24.662Z,80.05
2018-03-16T00:14:56.866Z,80.31
2018-03-16T00:16:23.017Z,79.71
2018-03-16T00:17:46.195Z,80.23
2018-03-16T00:19:13.370Z,80.27
2018-03-16T00:20:40.456Z,79.70
2018-03-16T00:22:07.635Z,80.35
2018-03-16T00:23:34.750Z,79.40
2018-03-16T00:25:01.707Z,80.02
2018-03-16T00:26:32.894Z,80.43
2018-03-16T00:27:56.074Z,80.11
2018-03-16T00:29:23.298Z,80.18
2018-03-16T00:30:50.453Z,80.00
2018-03-16T00:32:21.579Z,79.61
2018-03-16T00:33:48.548Z,80.08
2018-03-16T00:35:11.702Z,80.64
2018-03-16T00:36:42.901Z,80.17
2018-03-16T00:38:09.904Z,79.72
2018-03-16T00:39:36.992Z,79.10
2018-03-16T00:41:04.218Z,79.72
2018-03-16T00:42:27.282Z,79.79
2018-03-16T00:43:54.599Z,79.58
2018-03-16T00:45:21.619Z,80.06
2018-03-16T00:46:48.795Z,80.17
2018-03-16T00:48:16.080Z,79.40
2018-03-16T00:49:43.213Z,78.90
2018-03-16T00:51:10.297Z,79.50
2018-03-16T00:52:37.425Z,79.84
2018-03-16T00:54:08.557Z,79.68
2018-03-16T00:55:35.501Z,80.06
2018-03-16T00:56:58.755Z,79.23
2018-03-16T00:58:25.901Z,79.05
2018-03-16T00:59:53.100Z,79.03
2018-03-16T01:01:24.378Z,78.68
2018-03-16T01:02:47.680Z,78.99
2018-03-16T01:04:18.737Z,79.26
2018-03-16T01:05:41.786Z,79.09
2018-03-16T01:07:12.961Z,78.71
2018-03-16T01:08:39.982Z,79.37
2018-03-16T01:10:07.055Z,78.91
2018-03-16T01:11:30.370Z,78.31
2018-03-16T01:12:57.381Z,79.38
2018-03-16T01:14:28.449Z,78.30
2018-03-16T01:15:55.510Z,79.21
2018-03-16T01:17:18.654Z,78.87
2018-03-16T01:18:45.742Z,78.95
2018-03-16T01:20:16.793Z,79.44
2018-03-16T01:21:39.864Z,79.17
2018-03-16T01:23:10.967Z,79.30
2018-03-16T01:24:34.101Z,79.46
2018-03-16T01:26:05.262Z,79.21
2018-03-16T01:27:28.378Z,79.16
2018-03-16T01:28:59.614Z,79.06
2018-03-16T01:30:26.606Z,78.97
2018-03-16T01:31:53.742Z,79.07
2018-03-16T01:33:20.792Z,79.58
2018-03-16T01:34:44.022Z,79.16
2018-03-16T01:36:15.083Z,79.61
2018-03-16T01:37:37.886Z,78.64
2018-03-16T01:39:04.958Z,78.47
2018-03-16T01:40:35.917Z,79.36
2018-03-16T01:42:03.091Z,78.67
2018-03-16T01:43:30.067Z,78.14
2018-03-16T01:44:57.227Z,78.04
2018-03-16T01:46:20.445Z,78.73
2018-03-16T01:47:51.527Z,78.29
2018-03-16T01:49:14.617Z,77.97
2018-03-16T01:50:41.820Z,77.82
2018-03-16T01:52:12.876Z,77.18
2018-03-16T01:53:39.858Z,77.48
2018-03-16T01:55:06.983Z,78.12
2018-03-16T01:56:30.178Z,78.08
2018-03-16T01:58:01.176Z,78.03
2018-03-16T01:59:28.281Z,77.47
2018-03-16T02:00:59.407Z,77.59
2018-03-16T02:02:18.625Z,77.59
2018-03-16T02:03:49.638Z,77.43
2018-03-16T02:05:16.696Z,76.90
2018-03-16T02:06:43.854Z,77.43
2018-03-16T02:08:10.990Z,77.00
2018-03-16T02:09:38.130Z,77.09
2018-03-16T02:11:05.118Z,77.83
2018-03-16T02:12:32.201Z,76.73
2018-03-16T02:13:55.465Z,75.98
2018-03-16T02:15:26.438Z,76.04
2018-03-16T02:16:53.480Z,76.52
2018-03-16T02:18:16.574Z,76.50
2018-03-16T02:19:47.493Z,76.88
2018-03-16T02:21:10.691Z,77.19
2018-03-16T02:22:37.703Z,77.45
2018-03-16T02:24:08.692Z,76.45
2018-03-16T02:25:35.765Z,76.48
2018-03-16T02:27:02.807Z,76.86
2018-03-16T02:28:25.876Z,76.77
2018-03-16T02:29:56.994Z,77.22
2018-03-16T02:31:24.244Z,77.24
2018-03-16T02:32:51.306Z,76.85
2018-03-16T02:34:14.611Z,77.26
2018-03-16T02:35:45.667Z,77.15
2018-03-16T02:37:08.894Z,76.47
2018-03-16T02:38:39.993Z,76.57
2018-03-16T02:40:07.133Z,76.08
2018-03-16T02:41:30.261Z,75.54
2018-03-16T02:42:57.406Z,75.47
2018-03-16T02:44:28.480Z,76.08
2018-03-16T02:45:51.451Z,76.12
2018-03-16T02:47:22.617Z,75.56
2018-03-16T02:48:45.679Z,75.47
2018-03-16T02:50:12.951Z,75.57
2018-03-16T02:51:40.149Z,75.08
2018-03-16T02:53:07.052Z,76.08
2018-03-16T02:54:38.174Z,74.81
2018-03-16T02:56:05.120Z,75.76
2018-03-16T02:57:28.155Z,74.68
2018-03-16T02:58:55.317Z,74.76
2018-03-16T03:00:26.349Z,74.57
2018-03-16T03:01:53.494Z,75.13
2018-03-16T03:03:20.666Z,75.35
2018-03-16T03:04:43.655Z,74.83
2018-03-16T03:06:10.990Z,74.28
2018-03-16T03:07:42.087Z,73.76
2018-03-16T03:09:09.084Z,73.95
2018-03-16T03:10:32.312Z,73.97
2018-03-16T03:12:03.225Z,74.66
2018-03-16T03:13:30.145Z,73.13
2018-03-16T03:14:57.224Z,74.39
2018-03-16T03:16:20.416Z,73.61
2018-03-16T03:17:51.453Z,73.58
2018-03-16T03:19:18.606Z,73.71
2018-03-16T03:20:45.690Z,73.25
2018-03-16T03:22:12.678Z,74.10
2018-03-16T03:23:39.888Z,74.14
2018-03-16T03:25:02.762Z,73.19
2018-03-16T03:26:30.137Z,73.28
2018-03-16T03:27:57.218Z,73.90
2018-03-16T03:29:28.245Z,74.20
2018-03-16T03:30:51.394Z,74.43
2018-03-16T03:32:22.677Z,73.39
2018-03-16T03:33:49.651Z,73.37
2018-03-16T03:35:16.848Z,73.61
2018-03-16T03:36:44.003Z,73.74
2018-03-16T03:38:10.899Z,74.22
2018-03-16T03:39:38.024Z,73.78
2018-03-16T03:41:04.902Z,73.46
2018-03-16T03:42:27.883Z,74.32
2018-03-16T03:43:55.037Z,73.49
2018-03-16T03:45:22.236Z,72.63
2018-03-16T03:46:49.252Z,73.19
2018-03-16T03:48:20.426Z,73.35
2018-03-16T03:49:47.686Z,73.52
2018-03-16T03:51:14.923Z,73.47
2018-03-16T03:52:38.002Z,73.56
2018-03-16T03:54:09.159Z,73.39
2018-03-16T03:55:36.156Z,73.36
2018-03-16T03:57:03.167Z,73.57
2018-03-16T03:58:26.229Z,73.89
2018-03-16T03:59:53.476Z,74.19
2018-03-16T04:01:24.462Z,73.92
2018-03-16T04:02:51.509Z,74.17
2018-03-16T04:04:14.442Z,73.37
2018-03-16T04:05:41.630Z,73.48
2018-03-16T04:07:08.551Z,72.83
2018-03-16T04:08:39.656Z,72.49
2018-03-16T04:10:06.806Z,73.45
2018-03-16T04:11:33.808Z,73.59
2018-03-16T04:12:57.108Z,74.29
2018-03-16T04:14:24.304Z,74.23
2018-03-16T04:15:51.400Z,72.63
2018-03-16T04:17:22.567Z,73.78
2018-03-16T04:18:49.718Z,72.87
2018-03-16T04:20:12.855Z,71.70
2018-03-16T04:21:43.806Z,71.66
2018-03-16T04:23:10.949Z,72.57
2018-03-16T04:24:34.108Z,73.55
2018-03-16T04:26:05.209Z,73.91
2018-03-16T04:27:28.341Z,73.38
2018-03-16T04:28:59.480Z,73.53
2018-03-16T04:30:26.583Z,72.79
2018-03-16T04:31:49.738Z,73.30
2018-03-16T04:33:16.906Z,72.75
2018-03-16T04:34:44.109Z,73.19
2018-03-16T04:36:15.141Z,72.79
2018-03-16T04:37:38.270Z,72.70
2018-03-16T04:39:09.459Z,73.17
2018-03-16T04:40:32.476Z,72.81
2018-03-16T04:42:03.588Z,73.29
2018-03-16T04:43:26.803Z,72.74
2018-03-16T04:44:54.059Z,73.31
2018-03-16T04:46:21.194Z,73.51
2018-03-16T04:47:52.217Z,72.16
2018-03-16T04:49:15.417Z,73.23
2018-03-16T04:50:42.695Z,72.24
2018-03-16T04:52:09.763Z,72.91
2018-03-16T04:53:40.838Z,72.60
2018-03-16T04:55:07.946Z,72.58
2018-03-16T04:56:34.909Z,73.00
2018-03-16T04:57:58.015Z,72.97
2018-03-16T04:59:25.218Z,72.97
2018-03-16T05:00:52.392Z,72.78
2018-03-16T05:02:23.375Z,73.58
2018-03-16T05:03:50.474Z,73.31
2018-03-16T05:05:17.588Z,73.31
2018-03-16T05:06:40.691Z,73.61
2018-03-16T05:08:11.698Z,73.56
2018-03-16T05:09:41.857Z,73.49
2018-03-16T05:11:01.710Z,74.34
2018-03-16T05:12:32.960Z,73.16
2018-03-16T05:13:59.924Z,74.16
2018-03-16T05:15:27.168Z,73.77
2018-03-16T05:16:50.328Z,73.97
2018-03-16T05:18:21.523Z,74.27
2018-03-16T05:19:48.394Z,74.32
2018-03-16T05:21:15.453Z,74.61
2018-03-16T05:22:42.473Z,74.09
2018-03-16T05:24:09.526Z,74.59
2018-03-16T05:25:32.582Z,74.51
2018-03-16T05:27:03.739Z,73.74
2018-03-16T05:28:26.952Z,74.39
2018-03-16T05:29:58.111Z,74.80
2018-03-16T05:31:25.120Z,74.82
2018-03-16T05:32:52.246Z,73.73
2018-03-16T05:34:15.513Z,73.54
2018-03-16T05:35:46.536Z,74.01
2018-03-16T05:37:09.645Z,74.61
2018-03-16T05:38:40.709Z,74.70
2018-03-16T05:40:07.705Z,74.96
2018-03-16T05:41:30.858Z,74.47
2018-03-16T05:43:01.995Z,73.42
2018-03-16T05:44:25.221Z,73.88
2018-03-16T05:45:52.257Z,74.15
2018-03-16T05:47:23.301Z,74.63
2018-03-16T05:48:46.526Z,74.56
2018-03-16T05:50:17.649Z,73.58
2018-03-16T05:51:44.676Z,74.02
2018-03-16T05:53:11.769Z,74.64
2018-03-16T05:54:38.978Z,74.25
2018-03-16T05:56:01.967Z,74.74
2018-03-16T05:57:29.110Z,74.62
2018-03-16T05:58:56.228Z,74.59
2018-03-16T06:00:23.318Z,74.48
2018-03-16T06:01:54.460Z,74.15
2018-03-16T06:03:17.621Z,74.13
2018-03-16T06:04:44.793Z,73.79
2018-03-16T06:06:15.844Z,72.96
2018-03-16T06:07:42.938Z,73.31
2018-03-16T06:09:10.015Z,73.22
2018-03-16T06:10:32.994Z,74.43
2018-03-16T06:12:04.275Z,73.35
2018-03-16T06:13:31.383Z,73.91
2018-03-16T06:14:54.625Z,73.93
2018-03-16T06:16:25.933Z,73.49
2018-03-16T06:17:53.009Z,73.21
2018-03-16T06:19:20.247Z,73.83
2018-03-16T06:20:43.323Z,73.33
2018-03-16T06:22:14.455Z,72.54
2018-03-16T06:23:41.497Z,72.34
2018-03-16T06:25:08.630Z,72.94
2018-03-16T06:26:31.650Z,73.13
2018-03-16T06:28:02.907Z,72.27
2018-03-16T06:29:25.992Z,72.45
2018-03-16T06:30:56.957Z,72.56
2018-03-16T06:32:20.267Z,71.83
2018-03-16T06:33:47.184Z,72.93
2018-03-16T06:35:14.515Z,72.16
2018-03-16T06:36:41.690Z,72.31
2018-03-16T06:38:12.584Z,72.12
2018-03-16T06:39:39.839Z,71.54
2018-03-16T06:41:02.775Z,71.30
2018-03-16T06:42:33.805Z,72.38
2018-03-16T06:43:56.840Z,72.48
2018-03-16T06:45:27.956Z,72.59
2018-03-16T06:46:51.186Z,71.09
2018-03-16T06:48:18.230Z,72.46
2018-03-16T06:49:45.359Z,71.91
2018-03-16T06:51:16.474Z,72.12
2018-03-16T06:52:43.669Z,71.80
2018-03-16T06:54:06.686Z,71.24
2018-03-16T06:55:33.664Z,70.93
2018-03-16T06:57:00.875Z,70.49
2018-03-16T06:58:32.007Z,70.63
2018-03-16T06:59:59.206Z,70.76
2018-03-16T07:01:22.248Z,71.18
2018-03-16T07:02:49.160Z,70.67
2018-03-16T07:04:20.192Z,70.20
2018-03-16T07:05:43.448Z,69.40
2018-03-16T07:07:10.544Z,69.26
2018-03-16T07:08:41.692Z,68.43
2018-03-16T07:10:04.686Z,69.87
2018-03-16T07:11:35.730Z,69.84
2018-03-16T07:12:58.845Z,67.42
2018-03-16T07:14:29.771Z,67.33
2018-03-16T07:15:56.979Z,67.50
2018-03-16T07:17:20.190Z,67.98
2018-03-16T07:18:51.362Z,66.58
2018-03-16T07:20:14.598Z,67.52
2018-03-16T07:21:45.489Z,67.53
2018-03-16T07:23:12.547Z,66.88
2018-03-16T07:24:39.595Z,67.03
2018-03-16T07:26:02.579Z,67.10
2018-03-16T07:27:29.695Z,66.82
2018-03-16T07:29:00.912Z,66.85
2018-03-16T07:30:28.115Z,67.59
2018-03-16T07:31:51.290Z,67.57
2018-03-16T07:33:18.417Z,65.85
2018-03-16T07:34:45.572Z,67.38
2018-03-16T07:36:12.877Z,67.12
2018-03-16T07:37:39.806Z,67.25
2018-03-16T07:39:06.874Z,67.30
2018-03-16T07:40:37.800Z,67.44
2018-03-16T07:42:05.004Z,67.61
2018-03-16T07:43:32.099Z,67.78
2018-03-16T07:44:59.115Z,67.78
2018-03-16T07:46:26.204Z,66.72
2018-03-16T07:47:53.057Z,68.15
2018-03-16T07:49:20.143Z,67.50
2018-03-16T07:50:43.281Z,67.03
2018-03-16T07:52:14.216Z,66.81
2018-03-16T07:53:37.194Z,66.13
2018-03-16T07:55:04.334Z,66.12
2018-03-16T07:56:35.372Z,66.26
2018-03-16T07:57:58.526Z,66.37
2018-03-16T07:59:29.600Z,65.71
2018-03-16T08:00:56.878Z,64.60
2018-03-16T08:02:24.004Z,65.86
2018-03-16T08:03:47.322Z,65.19
2018-03-16T08:05:14.448Z,65.86
2018-03-16T08:06:45.269Z,65.86
2018-03-16T08:08:08.431Z,66.73
2018-03-16T08:09:39.518Z,65.70
2018-03-16T08:11:06.784Z,65.88
2018-03-16T08:12:33.876Z,66.40
2018-03-16T08:13:57.035Z,66.02
2018-03-16T08:15:24.333Z,65.49
2018-03-16T08:16:55.497Z,66.83
2018-03-16T08:18:22.721Z,67.52
2018-03-16T08:19:45.915Z,67.04
2018-03-16T08:21:13.157Z,67.34
2018-03-16T08:22:40.070Z,66.20
2018-03-16T08:24:11.171Z,66.56
2018-03-16T08:25:34.213Z,65.37
2018-03-16T08:27:05.551Z,65.67
2018-03-16T08:28:32.272Z,66.51
2018-03-16T08:29:59.371Z,66.06
2018-03-16T08:31:26.641Z,66.61
2018-03-16T08:32:53.807Z,67.64
2018-03-16T08:34:21.108Z,67.21
2018-03-16T08:35:48.233Z,67.22
2018-03-16T08:37:11.086Z,67.54
2018-03-16T08:38:42.240Z,67.16
2018-03-16T08:40:09.159Z,65.91
2018-03-16T08:41:32.189Z,67.20
2018-03-16T08:42:59.385Z,64.84
2018-03-16T08:44:30.539Z,65.97
2018-03-16T08:45:57.526Z,65.22
2018-03-16T08:47:24.582Z,66.41
2018-03-16T08:48:47.717Z,65.08
2018-03-16T08:50:18.827Z,65.73
2018-03-16T08:51:45.903Z,65.99
2018-03-16T08:53:13.100Z,65.52
2018-03-16T08:54:40.168Z,66.14
2018-03-16T08:56:06.808Z,64.72
2018-03-16T08:57:30.057Z,64.79
2018-03-16T08:58:57.242Z,65.62
2018-03-16T09:00:28.024Z,65.63
2018-03-16T09:01:51.092Z,65.20
2018-03-16T09:03:18.253Z,65.06
2018-03-16T09:04:49.327Z,65.95
2018-03-16T09:06:12.433Z,65.58
2018-03-16T09:07:43.553Z,65.64
2018-03-16T09:09:06.585Z,66.60
2018-03-16T09:10:33.679Z,65.77
2018-03-16T09:12:04.663Z,65.86
2018-03-16T09:13:31.946Z,66.33
2018-03-16T09:14:55.109Z,65.43
2018-03-16T09:16:26.184Z,65.03
2018-03-16T09:17:49.314Z,65.21
2018-03-16T09:19:16.568Z,64.40
2018-03-16T09:20:47.586Z,66.33
2018-03-16T09:22:14.737Z,64.48
2018-03-16T09:23:41.745Z,64.46
2018-03-16T09:25:04.741Z,65.18
2018-03-16T09:26:31.747Z,64.36
2018-03-16T09:28:02.929Z,64.71
2018-03-16T09:29:29.937Z,65.31
2018-03-16T09:30:57.101Z,65.23
2018-03-16T09:32:24.241Z,65.53
2018-03-16T09:33:47.355Z,65.09
2018-03-16T09:35:18.390Z,64.88
2018-03-16T09:36:41.544Z,65.17
2018-03-16T09:38:08.708Z,65.56
2018-03-16T09:39:35.869Z,64.70
2018-03-16T09:41:07.058Z,64.58
2018-03-16T09:42:30.114Z,65.21
2018-03-16T09:44:01.135Z,64.51
2018-03-16T09:45:24.190Z,64.58
2018-03-16T09:46:55.442Z,64.31
2018-03-16T09:48:22.625Z,64.06
2018-03-16T09:49:45.810Z,63.52
2018-03-16T09:51:16.947Z,63.43
2018-03-16T09:52:44.153Z,64.05
2018-03-16T09:54:07.302Z,63.79
2018-03-16T09:55:34.343Z,63.18
2018-03-16T09:57:01.402Z,63.32
2018-03-16T09:58:32.376Z,64.85
2018-03-16T09:59:59.488Z,64.27
2018-03-16T10:01:22.661Z,64.45
2018-03-16T10:02:53.630Z,64.62
2018-03-16T10:04:20.578Z,64.72
2018-03-16T10:05:43.807Z,64.77
2018-03-16T10:07:14.985Z,65.82
2018-03-16T10:08:42.136Z,64.98
2018-03-16T10:10:09.220Z,65.53
2018-03-16T10:11:36.296Z,65.02
2018-03-16T10:13:03.242Z,65.48
2018-03-16T10:14:30.502Z,65.04
2018-03-16T10:15:57.700Z,63.84
2018-03-16T10:17:20.709Z,62.33
2018-03-16T10:18:47.822Z,63.28
2018-03-16T10:20:14.850Z,62.69
2018-03-16T10:21:45.885Z,62.15
2018-03-16T10:23:12.995Z,60.07
2018-03-16T10:24:36.210Z,62.97
2018-03-16T10:26:07.376Z,62.77
2018-03-16T10:27:34.501Z,61.88
2018-03-16T10:28:57.572Z,62.16
2018-03-16T10:30:24.699Z,62.01
2018-03-16T10:31:51.640Z,63.36
2018-03-16T10:33:18.874Z,63.18
2018-03-16T10:34:50.073Z,63.79
2018-03-16T10:36:17.260Z,63.54
2018-03-16T10:37:44.438Z,63.19
2018-03-16T10:39:11.634Z,63.71
2018-03-16T10:40:34.731Z,63.20
2018-03-16T10:42:05.781Z,64.55
2018-03-16T10:43:32.830Z,64.10
2018-03-16T10:44:55.832Z,64.48
2018-03-16T10:46:22.949Z,62.41
2018-03-16T10:47:50.180Z,63.13
2018-03-16T10:49:21.384Z,63.78
2018-03-16T10:50:48.213Z,63.40
2018-03-16T10:52:15.379Z,63.56
2018-03-16T10:53:38.381Z,63.48
2018-03-16T10:55:09.491Z,62.91
2018-03-16T10:56:32.447Z,64.08
2018-03-16T10:58:03.468Z,63.28
2018-03-16T10:59:30.792Z,62.54
2018-03-16T11:00:57.663Z,62.75
2018-03-16T11:02:20.844Z,61.43
2018-03-16T11:03:48.005Z,62.39
2018-03-16T11:05:19.283Z,61.95
2018-03-16T11:06:46.307Z,62.15
2018-03-16T11:08:09.462Z,60.91
2018-03-16T11:09:40.326Z,63.06
2018-03-16T11:11:03.361Z,63.22
2018-03-16T11:12:34.600Z,62.58
2018-03-16T11:13:57.669Z,63.25
2018-03-16T11:15:24.737Z,62.85
2018-03-16T11:16:55.950Z,63.32
2018-03-16T11:18:23.139Z,62.94
2018-03-16T11:19:50.253Z,62.35
2018-03-16T11:21:13.503Z,62.55
2018-03-16T11:22:40.696Z,62.86
2018-03-16T11:24:11.767Z,63.79
2018-03-16T11:25:34.809Z,63.43
2018-03-16T11:27:01.871Z,63.24
2018-03-16T11:28:28.881Z,63.48
2018-03-16T11:30:00.002Z,62.66
2018-03-16T11:31:26.939Z,63.03
2018-03-16T11:32:54.050Z,62.31
2018-03-16T11:34:17.292Z,62.11
2018-03-16T11:35:44.409Z,60.37
2018-03-16T11:37:15.406Z,61.71
2018-03-16T11:38:42.413Z,62.34
2018-03-16T11:40:09.458Z,61.63
2018-03-16T11:41:32.414Z,62.95
2018-03-16T11:42:59.419Z,62.93
2018-03-16T11:44:26.603Z,62.51
2018-03-16T11:45:57.680Z,62.45
2018-03-16T11:47:20.787Z,63.26
2018-03-16T11:48:52.165Z,62.17
2018-03-16T11:50:15.404Z,62.36
2018-03-16T11:51:42.438Z,64.10
2018-03-16T11:53:13.696Z,63.02
2018-03-16T11:54:40.758Z,61.84
2018-03-16T11:56:07.882Z,61.57
2018-03-16T11:57:31.105Z,61.68
2018-03-16T11:59:02.120Z,62.66
2018-03-16T12:00:25.203Z,62.80
2018-03-16T12:01:56.373Z,62.52
2018-03-16T12:03:19.655Z,63.29
2018-03-16T12:04:50.710Z,63.21
2018-03-16T12:06:17.726Z,61.85
2018-03-16T12:07:44.682Z,61.94
2018-03-16T12:09:11.927Z,62.28
2018-03-16T12:10:34.973Z,62.93
2018-03-16T12:12:02.047Z,62.96
2018-03-16T12:13:33.144Z,61.69
2018-03-16T12:14:56.300Z,61.81
2018-03-16T12:16:27.506Z,61.92
2018-03-16T12:17:50.690Z,62.15
2018-03-16T12:19:17.916Z,61.90
2018-03-16T12:20:49.019Z,60.33
2018-03-16T12:22:12.182Z,61.95
2018-03-16T12:23:43.245Z,61.75
2018-03-16T12:25:10.254Z,60.82
2018-03-16T12:26:33.323Z,61.30
2018-03-16T12:28:04.550Z,61.23
2018-03-16T12:29:27.798Z,60.83
2018-03-16T12:30:54.958Z,61.08
2018-03-16T12:32:26.155Z,62.58
2018-03-16T12:33:53.093Z,62.55
2018-03-16T12:35:20.215Z,61.35
2018-03-16T12:36:43.526Z,61.97
2018-03-16T12:38:14.517Z,60.77
2018-03-16T12:39:37.611Z,61.67
2018-03-16T12:41:08.669Z,61.99
2018-03-16T12:43:58.811Z,61.17
2018-03-16T12:45:29.775Z,61.48
2018-03-16T12:46:52.975Z,62.46
2018-03-16T12:48:24.056Z,61.73
2018-03-16T12:49:47.079Z,61.12
2018-03-16T12:51:18.389Z,61.95
2018-03-16T12:52:41.465Z,61.93
2018-03-16T12:54:12.573Z,62.16
2018-03-16T12:55:35.633Z,62.54
2018-03-16T12:57:02.450Z,61.42
2018-03-16T12:58:33.679Z,61.67
2018-03-16T12:59:56.939Z,61.42
2018-03-16T13:01:24.083Z,60.87
2018-03-16T13:02:51.334Z,60.40
2018-03-16T13:04:22.547Z,60.17
2018-03-16T13:05:49.626Z,61.83
2018-03-16T13:07:16.727Z,61.01
2018-03-16T13:08:43.956Z,61.90
2018-03-16T13:10:07.108Z,62.19
2018-03-16T13:11:38.314Z,62.53
2018-03-16T13:13:05.281Z,61.87
2018-03-16T13:14:28.383Z,61.69
2018-03-16T13:15:55.516Z,61.70
2018-03-16T13:17:22.501Z,62.35
2018-03-16T13:18:49.448Z,63.86
2018-03-16T13:20:16.642Z,63.28
2018-03-16T13:21:47.903Z,61.92
2018-03-16T13:23:11.062Z,62.17
2018-03-16T13:24:38.307Z,61.84
2018-03-16T13:26:08.999Z,62.32
2018-03-16T13:27:36.128Z,62.57
2018-03-16T13:29:03.241Z,62.28
2018-03-16T13:30:26.367Z,62.66
2018-03-16T13:31:53.429Z,63.88
2018-03-16T13:33:20.425Z,63.40
2018-03-16T13:34:47.507Z,63.45
2018-03-16T13:36:14.523Z,63.50
2018-03-16T13:37:41.776Z,64.04
2018-03-16T13:39:09.068Z,63.48
2018-03-16T13:40:35.998Z,63.58
2018-03-16T13:42:09.963Z,61.95
2018-03-16T13:43:30.137Z,61.49
2018-03-16T13:44:57.256Z,62.04
2018-03-16T13:46:24.316Z,62.10
2018-03-16T13:47:55.430Z,61.66
2018-03-16T13:49:22.617Z,62.30
2018-03-16T13:50:45.841Z,61.47
2018-03-16T13:52:13.063Z,61.65
2018-03-16T13:53:44.066Z,62.28
2018-03-16T13:55:11.237Z,61.66
2018-03-16T13:56:38.218Z,61.35
2018-03-16T13:58:05.497Z,61.36
2018-03-16T13:59:32.606Z,61.53
2018-03-16T14:00:55.609Z,62.31
2018-03-16T14:02:26.775Z,61.52
2018-03-16T14:03:53.893Z,60.94
2018-03-16T14:05:17.228Z,61.44
2018-03-16T14:06:44.281Z,61.68
2018-03-16T14:08:15.339Z,62.38
2018-03-16T14:09:42.318Z,62.25
2018-03-16T14:11:09.375Z,61.74
2018-03-16T14:12:32.211Z,62.86
2018-03-16T14:14:03.283Z,62.74
2018-03-16T14:15:30.341Z,62.65
2018-03-16T14:16:53.392Z,62.94
2018-03-16T14:18:20.438Z,63.13
2018-03-16T14:19:51.722Z,63.79
2018-03-16T14:21:18.785Z,62.77
2018-03-16T14:22:42.003Z,64.46
2018-03-16T14:24:13.154Z,62.20
2018-03-16T14:25:36.290Z,62.22
2018-03-16T14:27:03.330Z,61.95
2018-03-16T14:28:30.362Z,63.54
2018-03-16T14:30:01.499Z,62.13
2018-03-16T14:31:28.733Z,62.88
2018-03-16T14:32:51.774Z,62.38
2018-03-16T14:34:22.857Z,61.84
2018-03-16T14:35:45.786Z,62.56
2018-03-16T14:37:16.787Z,62.89
2018-03-16T14:38:43.921Z,62.40
2018-03-16T14:40:06.784Z,62.15
2018-03-16T14:41:37.890Z,61.08
2018-03-16T14:43:05.054Z,61.95
2018-03-16T14:44:27.874Z,61.57
2018-03-16T14:45:54.885Z,62.64
2018-03-16T14:47:21.661Z,62.79
2018-03-16T14:48:52.812Z,60.95
2018-03-16T14:50:19.916Z,60.12
2018-03-16T14:51:43.079Z,59.66
2018-03-16T14:53:10.182Z,61.77
2018-03-16T14:54:41.231Z,63.21
2018-03-16T14:56:04.326Z,60.64
2018-03-16T14:57:35.598Z,59.15
2018-03-16T14:59:02.686Z,59.13
2018-03-16T15:00:25.776Z,58.10
2018-03-16T15:01:56.895Z,58.83
2018-03-16T15:03:24.297Z,59.15
2018-03-16T15:04:47.437Z,58.68
2018-03-16T15:06:14.450Z,59.73
2018-03-16T15:07:41.673Z,59.48
2018-03-16T15:09:08.655Z,59.85
2018-03-16T15:10:39.826Z,59.69
2018-03-16T15:12:03.039Z,58.87
2018-03-16T15:13:34.124Z,57.73
2018-03-16T15:14:57.396Z,60.20
2018-03-16T15:16:28.512Z,61.96
2018-03-16T15:17:55.615Z,61.71
2018-03-16T15:19:22.770Z,62.96
2018-03-16T15:20:45.668Z,62.27
2018-03-16T15:22:12.581Z,61.58
2018-03-16T15:23:39.754Z,62.34
2018-03-16T15:25:07.023Z,60.62
2018-03-16T15:26:34.207Z,59.79
2018-03-16T15:28:05.141Z,60.58
2018-03-16T15:29:32.222Z,59.53
2018-03-16T15:30:55.507Z,59.61
2018-03-16T15:32:22.307Z,59.71
2018-03-16T15:33:49.333Z,59.62
2018-03-16T15:35:20.446Z,59.85
2018-03-16T15:36:47.236Z,60.42
2018-03-16T15:38:14.601Z,60.07
2018-03-16T15:39:41.342Z,61.05
2018-03-16T15:41:08.228Z,62.53
2018-03-16T15:42:31.443Z,62.84
2018-03-16T15:44:02.339Z,62.14
2018-03-16T15:45:29.395Z,63.27
2018-03-16T15:46:52.748Z,62.91
2018-03-16T15:48:23.586Z,64.01
2018-03-16T15:49:50.603Z,64.02
2018-03-16T15:51:13.657Z,63.86
2018-03-16T15:52:44.887Z,65.66
2018-03-16T15:54:07.658Z,64.81
2018-03-16T15:55:34.619Z,63.92
2018-03-16T15:57:05.540Z,64.59
2018-03-16T15:58:32.793Z,65.19
2018-03-16T15:59:59.759Z,65.48
2018-03-16T16:01:22.453Z,65.89
2018-03-16T16:02:53.651Z,66.55
2018-03-16T16:04:16.762Z,66.61
2018-03-16T16:05:43.647Z,66.72
2018-03-16T16:07:14.761Z,66.63
2018-03-16T16:08:41.905Z,66.93
2018-03-16T16:10:08.794Z,68.92
2018-03-16T16:11:35.519Z,69.12
2018-03-16T16:13:02.585Z,69.77
2018-03-16T16:14:29.737Z,69.03
2018-03-16T16:15:52.592Z,69.06
2018-03-16T16:17:23.596Z,68.51
2018-03-16T16:18:50.632Z,68.49
2018-03-16T16:20:17.432Z,68.76
2018-03-16T16:21:44.532Z,67.25
2018-03-16T16:23:14.747Z,66.51
2018-03-16T16:24:38.596Z,66.76
2018-03-16T16:26:05.565Z,66.66
2018-03-16T16:27:32.785Z,66.17
2018-03-16T16:28:55.919Z,65.37
2018-03-16T16:30:26.868Z,65.60
2018-03-16T16:31:54.042Z,64.84
2018-03-16T16:33:16.958Z,65.12
2018-03-16T16:34:48.046Z,64.84
2018-03-16T16:36:11.111Z,65.95
2018-03-16T16:37:37.898Z,65.67
2018-03-16T16:39:08.973Z,66.73
2018-03-16T16:40:35.751Z,67.86
2018-03-16T16:41:58.911Z,68.33
2018-03-16T16:43:25.954Z,67.82
2018-03-16T16:44:56.844Z,67.84
2018-03-16T16:46:23.559Z,66.72
2018-03-16T16:47:50.249Z,67.20
2018-03-16T16:49:13.325Z,67.52
2018-03-16T16:50:44.267Z,67.27
2018-03-16T16:52:11.286Z,67.13
2018-03-16T16:53:38.188Z,67.03
2018-03-16T16:55:01.097Z,66.50
2018-03-16T16:56:32.082Z,67.48
2018-03-16T16:57:59.121Z,65.92
2018-03-16T16:59:26.148Z,65.83
2018-03-16T17:00:53.108Z,65.79
2018-03-16T17:02:20.084Z,64.94
2018-03-16T17:03:43.159Z,64.83
2018-03-16T17:05:10.041Z,64.96
2018-03-16T17:06:41.023Z,64.38
2018-03-16T17:08:03.930Z,64.28
2018-03-16T17:09:35.003Z,64.39
2018-03-16T17:11:01.784Z,65.07
2018-03-16T17:12:28.987Z,65.41
2018-03-16T17:13:56.062Z,65.58
2018-03-16T17:15:19.099Z,65.70
2018-03-16T17:16:50.114Z,65.73
2018-03-16T17:18:13.073Z,65.78
2018-03-16T17:19:44.173Z,65.54
2018-03-16T17:21:11.355Z,65.39
2018-03-16T17:22:38.378Z,65.42
2018-03-16T17:24:01.220Z,64.94
2018-03-16T17:25:28.287Z,64.93
2018-03-16T17:26:55.279Z,64.58
2018-03-16T17:28:22.353Z,65.13
2018-03-16T17:29:53.329Z,65.45
2018-03-16T17:31:20.421Z,65.24
2018-03-16T17:32:47.470Z,65.00
2018-03-16T17:34:14.563Z,65.51
2018-03-16T17:35:37.628Z,65.38
2018-03-16T17:37:08.722Z,64.98
2018-03-16T17:38:31.637Z,65.97
2018-03-16T17:39:58.594Z,65.55
2018-03-16T17:41:25.725Z,66.13
2018-03-16T17:42:56.689Z,67.20
2018-03-16T17:44:23.543Z,67.53
2018-03-16T17:45:50.615Z,67.81
2018-03-16T17:47:13.570Z,68.42
2018-03-16T17:48:44.472Z,68.83
2018-03-16T17:50:11.406Z,68.95
2018-03-16T17:51:38.363Z,67.89
2018-03-16T17:53:05.420Z,67.47
2018-03-16T17:54:28.340Z,66.11
2018-03-16T17:55:59.378Z,66.14
2018-03-16T17:57:26.231Z,63.29
2018-03-16T17:58:53.313Z,62.34
2018-03-16T18:00:16.430Z,61.83
2018-03-16T18:01:43.319Z,62.16
2018-03-16T18:03:14.342Z,62.45
2018-03-16T18:04:41.222Z,62.69
2018-03-16T18:06:08.089Z,61.72
2018-03-16T18:07:30.765Z,61.11
2018-03-16T18:09:01.785Z,61.83
2018-03-16T18:10:24.708Z,60.95
2018-03-16T18:11:55.835Z,60.75
2018-03-16T18:13:18.977Z,59.71
2018-03-16T18:14:46.030Z,59.92
2018-03-16T18:16:13.175Z,60.78
2018-03-16T18:17:40.148Z,61.35
2018-03-16T18:19:11.130Z,62.17
2018-03-16T18:20:34.219Z,62.71
2018-03-16T18:22:05.249Z,63.09
2018-03-16T18:23:32.079Z,63.46
2018-03-16T18:24:55.253Z,63.29
2018-03-16T18:26:26.350Z,63.02
2018-03-16T18:27:49.297Z,63.71
2018-03-16T18:29:20.369Z,64.30
2018-03-16T18:30:43.462Z,64.99
2018-03-16T18:32:10.444Z,64.95
2018-03-16T18:33:41.575Z,64.73
2018-03-16T18:35:08.454Z,64.20
2018-03-16T18:36:35.297Z,62.68
2018-03-16T18:38:02.451Z,61.61
2018-03-16T18:39:25.476Z,62.27
2018-03-16T18:40:52.721Z,61.98
2018-03-16T18:42:19.621Z,62.47